Terminal Aerodrome Forecast
Issued by NWS

Home | Current Version | Previous Version | Text Only | Print | Product List | Glossary On
Versions: 1 2 3 4 5 6 7 8 9 10 11 12 13 14 15 16 17 18 19 20 21 22 23
000
FTUS43 KGRR 241700
TAFJXN
TAF
KJXN 241735Z 2418/2518 23004KT P6SM OVC026
     FM242100 20005KT P6SM BKN050
     FM250200 18004KT P6SM SKC
     FM250600 18005KT 4SM BR SKC
     FM250900 18006KT 2SM BR SKC
     FM251200 22008KT 1SM BR OVC007
     FM251500 26011KT 4SM BR OVC015=

USA.gov is the U.S. government's official web portal to all federal, state and local government web resources and services.